Time;durP1;ratioP1;P1;durP2;ratioP2;P2;SDS_P1;SDS_P2;PMS_P1;PMS_P2;Temp;Humidity;BMP_temperature;BMP_pressure;BME280_temperature;BME280_humidity;BME280_pressure;Samples;Min_cycle;Max_cycle;Signal;HPM_P1;HPM_P2
2021/05/01 00:02:14;;;;;;;0.32;0.32;;;;;;;;;;5016980;28;20197;-70
2021/05/01 00:04:40;;;;;;;1.92;1.83;;;;;;;;;;5034777;28;20217;-70
2021/05/01 00:07:07;;;;;;;1.05;1.02;;;;;;;;;;5034880;28;20193;-70
2021/05/01 00:09:33;;;;;;;0.65;0.50;;;;;;;;;;5017295;28;20236;-70
2021/05/01 00:11:59;;;;;;;1.75;1.10;;;;;;;;;;5034597;28;20204;-70
2021/05/01 00:14:26;;;;;;;1.35;1.30;;;;;;;;;;5034548;28;20174;-71
2021/05/01 00:16:53;;;;;;;1.00;0.98;;;;;;;;;;5034519;28;20246;-71
2021/05/01 00:19:19;;;;;;;0.93;0.93;;;;;;;;;;5016788;28;20204;-71
2021/05/01 00:21:46;;;;;;;2.90;0.85;;;;;;;;;;5034105;28;20221;-71
2021/05/01 00:24:12;;;;;;;3.22;1.05;;;;;;;;;;5016664;28;20174;-71
2021/05/01 00:26:38;;;;;;;2.20;1.38;;;;;;;;;;5034489;28;20154;-72
2021/05/01 00:29:04;;;;;;;0.88;0.88;;;;;;;;;;5034607;28;20234;-72
2021/05/01 00:31:34;;;;;;;0.63;0.60;;;;;;;;;;5034280;28;20225;-72
2021/05/01 00:34:01;;;;;;;1.65;1.58;;;;;;;;;;5034896;28;20154;-71
2021/05/01 00:36:27;;;;;;;2.35;0.98;;;;;;;;;;5034745;28;20154;-71
2021/05/01 00:38:54;;;;;;;1.27;1.27;;;;;;;;;;5034516;28;20170;-72
2021/05/01 00:41:21;;;;;;;0.28;0.28;;;;;;;;;;5034263;28;20198;-72
2021/05/01 00:43:48;;;;;;;0.60;0.60;;;;;;;;;;5016891;28;20170;-72
2021/05/01 00:46:14;;;;;;;1.30;1.20;;;;;;;;;;5034413;28;20249;-71
2021/05/01 00:48:41;;;;;;;0.82;0.82;;;;;;;;;;5016697;28;20170;-72
2021/05/01 00:51:07;;;;;;;3.75;1.30;;;;;;;;;;5034296;28;20268;-72
2021/05/01 00:53:33;;;;;;;1.00;1.00;;;;;;;;;;5016537;28;20178;-72
2021/05/01 00:56:00;;;;;;;0.77;0.77;;;;;;;;;;5034362;28;20192;-72
2021/05/01 00:58:27;;;;;;;0.25;0.25;;;;;;;;;;5016609;28;20196;-71
2021/05/01 01:01:09;;;;;;;1.75;1.05;;;;;;;;;;5016526;28;20281;-71
2021/05/01 01:03:37;;;;;;;0.50;0.40;;;;;;;;;;5029739;28;20154;-71
2021/05/01 01:06:04;;;;;;;0.30;0.30;;;;;;;;;;5030881;28;20163;-72
2021/05/01 01:08:31;;;;;;;0.73;0.73;;;;;;;;;;5030794;28;20162;-71
2021/05/01 01:10:57;;;;;;;0.82;0.82;;;;;;;;;;5030666;28;20194;-71
2021/05/01 01:13:23;;;;;;;0.60;0.60;;;;;;;;;;5012961;28;20166;-72
2021/05/01 01:15:50;;;;;;;1.25;1.15;;;;;;;;;;5030644;28;20221;-71
2021/05/01 01:18:17;;;;;;;0.30;0.30;;;;;;;;;;5012781;28;20170;-72
2021/05/01 01:20:43;;;;;;;2.42;0.88;;;;;;;;;;5030384;28;20204;-72
2021/05/01 01:23:10;;;;;;;0.50;0.50;;;;;;;;;;5012463;28;20260;-72
2021/05/01 01:25:37;;;;;;;1.08;1.08;;;;;;;;;;5030356;28;20172;-72
2021/05/01 01:28:03;;;;;;;0.63;0.63;;;;;;;;;;5012534;28;20625;-72
2021/05/01 01:30:30;;;;;;;0.82;0.82;;;;;;;;;;5030224;28;20317;-72
2021/05/01 01:32:57;;;;;;;0.25;0.25;;;;;;;;;;5030294;28;20180;-72
2021/05/01 01:35:24;;;;;;;0.60;0.60;;;;;;;;;;5030184;28;20206;-72
2021/05/01 01:37:51;;;;;;;5.05;1.35;;;;;;;;;;5012594;28;20193;-72
2021/05/01 01:40:18;;;;;;;0.38;0.38;;;;;;;;;;5030004;28;20205;-72
2021/05/01 01:42:45;;;;;;;1.13;1.13;;;;;;;;;;5029963;28;20255;-72
2021/05/01 01:45:12;;;;;;;1.38;1.30;;;;;;;;;;5018343;28;20202;-72
2021/05/01 01:47:39;;;;;;;0.40;0.40;;;;;;;;;;5010194;28;20163;-73
2021/05/01 01:50:07;;;;;;;0.73;0.73;;;;;;;;;;5010298;28;20159;-72
2021/05/01 01:52:36;;;;;;;0.38;0.38;;;;;;;;;;5009992;28;20163;-72
2021/05/01 01:55:03;;;;;;;0.82;0.80;;;;;;;;;;5010216;28;20194;-72
2021/05/01 01:57:29;;;;;;;0.50;0.50;;;;;;;;;;4992661;28;20177;-72
2021/05/01 01:59:55;;;;;;;1.08;1.08;;;;;;;;;;5010191;28;20171;-72
2021/05/01 02:02:21;;;;;;;6.50;1.05;;;;;;;;;;5010077;28;20202;-72
2021/05/01 02:04:48;;;;;;;0.63;0.63;;;;;;;;;;5010184;28;20190;-73
2021/05/01 02:07:14;;;;;;;0.20;0.20;;;;;;;;;;5010259;28;20163;-71
2021/05/01 02:09:40;;;;;;;0.73;0.73;;;;;;;;;;5010070;28;20163;-71
2021/05/01 02:12:06;;;;;;;1.58;1.48;;;;;;;;;;5010079;28;20197;-71
2021/05/01 02:14:32;;;;;;;0.50;0.50;;;;;;;;;;5009849;28;20195;-71
2021/05/01 02:16:58;;;;;;;0.30;0.30;;;;;;;;;;5010379;28;20195;-71
2021/05/01 02:19:25;;;;;;;2.10;0.88;;;;;;;;;;5010170;28;20189;-71
2021/05/01 02:21:51;;;;;;;0.35;0.35;;;;;;;;;;5009595;28;20253;-71
2021/05/01 02:24:17;;;;;;;0.82;0.75;;;;;;;;;;4992171;28;20195;-72
2021/05/01 02:26:43;;;;;;;1.23;1.13;;;;;;;;;;5009835;28;20170;-72
2021/05/01 02:29:09;;;;;;;0.52;0.52;;;;;;;;;;4992034;28;20179;-72
2021/05/01 02:31:36;;;;;;;0.43;0.43;;;;;;;;;;5009733;28;20221;-72
2021/05/01 02:34:02;;;;;;;0.82;0.82;;;;;;;;;;5009579;28;20166;-72
2021/05/01 02:36:28;;;;;;;1.40;1.13;;;;;;;;;;4992076;28;20260;-71
2021/05/01 02:38:55;;;;;;;0.45;0.45;;;;;;;;;;5009415;28;20237;-71
2021/05/01 02:41:22;;;;;;;0.30;0.30;;;;;;;;;;5009775;28;20198;-72
2021/05/01 02:43:49;;;;;;;0.20;0.20;;;;;;;;;;4991925;28;20242;-72
2021/05/01 02:46:15;;;;;;;0.20;0.20;;;;;;;;;;5009235;28;20249;-72
2021/05/01 02:48:41;;;;;;;0.35;0.35;;;;;;;;;;4991837;28;20178;-71
2021/05/01 02:51:07;;;;;;;0.25;0.25;;;;;;;;;;5009193;28;20231;-69
2021/05/01 02:53:34;;;;;;;0.30;0.30;;;;;;;;;;4991748;28;20214;-71
2021/05/01 02:56:00;;;;;;;0.40;0.40;;;;;;;;;;5009053;28;20201;-70
2021/05/01 02:58:26;;;;;;;0.60;0.60;;;;;;;;;;5009031;28;20174;-71
2021/05/01 03:00:53;;;;;;;0.82;0.82;;;;;;;;;;5009127;28;20222;-71
2021/05/01 03:03:20;;;;;;;1.00;0.75;;;;;;;;;;5009101;28;20573;-71
2021/05/01 03:05:46;;;;;;;0.15;0.15;;;;;;;;;;4991435;28;20195;-71
2021/05/01 03:08:12;;;;;;;2.88;0.93;;;;;;;;;;5009073;28;20243;-71
2021/05/01 03:10:39;;;;;;;0.10;0.10;;;;;;;;;;4991290;28;20179;-71
2021/05/01 03:13:05;;;;;;;0.40;0.40;;;;;;;;;;5008956;28;20170;-70
2021/05/01 03:15:32;;;;;;;0.70;0.70;;;;;;;;;;5008737;28;20205;-71
2021/05/01 03:17:58;;;;;;;1.75;1.33;;;;;;;;;;5008243;28;20218;-71
2021/05/01 03:20:24;;;;;;;0.77;0.75;;;;;;;;;;5008690;28;20171;-71
2021/05/01 03:22:50;;;;;;;2.08;1.00;;;;;;;;;;5008540;28;20223;-71
2021/05/01 03:25:17;;;;;;;1.33;1.23;;;;;;;;;;4990570;28;20203;-71
2021/05/01 03:27:43;;;;;;;0.90;0.90;;;;;;;;;;4991254;28;20174;-71
2021/05/01 03:30:11;;;;;;;1.17;0.50;;;;;;;;;;5008748;28;20192;-71
2021/05/01 03:32:38;;;;;;;0.30;0.30;;;;;;;;;;5008734;28;20181;-71
2021/05/01 03:35:05;;;;;;;0.35;0.30;;;;;;;;;;5008458;28;20202;-71
2021/05/01 03:37:31;;;;;;;0.20;0.20;;;;;;;;;;4991226;28;20233;-71
2021/05/01 03:39:57;;;;;;;0.60;0.60;;;;;;;;;;4991349;28;20175;-70
2021/05/01 03:42:24;;;;;;;3.33;0.45;;;;;;;;;;5008836;28;20187;-71
2021/05/01 03:44:50;;;;;;;0.10;0.10;;;;;;;;;;5008607;28;20246;-70
2021/05/01 03:47:16;;;;;;;1.98;1.33;;;;;;;;;;4990940;28;20898;-71
2021/05/01 03:49:42;;;;;;;0.57;0.57;;;;;;;;;;5008290;28;20215;-70
2021/05/01 03:52:09;;;;;;;0.35;0.35;;;;;;;;;;5008343;28;20241;-70
2021/05/01 03:54:35;;;;;;;2.13;0.75;;;;;;;;;;4990802;28;20198;-71
2021/05/01 03:57:01;;;;;;;3.92;1.80;;;;;;;;;;4990660;28;20182;-72
2021/05/01 03:59:27;;;;;;;0.75;0.75;;;;;;;;;;4990667;28;20210;-70
2021/05/01 04:01:53;;;;;;;0.90;0.90;;;;;;;;;;5008200;28;20194;-71
2021/05/01 04:04:20;;;;;;;0.43;0.43;;;;;;;;;;5008287;28;20194;-70
2021/05/01 04:06:47;;;;;;;0.57;0.57;;;;;;;;;;5008311;28;20155;-71
2021/05/01 04:09:13;;;;;;;0.90;0.90;;;;;;;;;;4990558;28;20289;-71
2021/05/01 04:11:39;;;;;;;0.50;0.50;;;;;;;;;;5008163;28;20163;-72
2021/05/01 04:14:05;;;;;;;0.57;0.57;;;;;;;;;;5008043;28;20166;-71
2021/05/01 04:16:31;;;;;;;0.82;0.82;;;;;;;;;;5008119;28;20167;-71
2021/05/01 04:18:57;;;;;;;0.25;0.25;;;;;;;;;;4990671;28;20175;-71
2021/05/01 04:21:24;;;;;;;0.35;0.35;;;;;;;;;;4986438;28;20235;-73
2021/05/01 04:23:50;;;;;;;0.70;0.57;;;;;;;;;;4988635;28;20163;-72
2021/05/01 04:26:19;;;;;;;0.63;0.63;;;;;;;;;;4988589;28;20210;-72
2021/05/01 04:28:46;;;;;;;0.82;0.82;;;;;;;;;;4988496;28;20160;-72
2021/05/01 04:31:12;;;;;;;0.52;0.52;;;;;;;;;;4971316;28;20183;-72
2021/05/01 04:33:38;;;;;;;3.35;1.95;;;;;;;;;;4989165;28;20171;-72
2021/05/01 04:36:05;;;;;;;1.85;1.75;;;;;;;;;;4988812;28;20693;-72
2021/05/01 04:38:31;;;;;;;0.73;0.73;;;;;;;;;;4992396;28;20191;-71
2021/05/01 04:40:57;;;;;;;2.50;1.23;;;;;;;;;;4992003;28;20159;-71
2021/05/01 04:43:26;;;;;;;1.80;1.48;;;;;;;;;;4992183;28;20156;-71
2021/05/01 04:45:54;;;;;;;0.85;0.85;;;;;;;;;;4992144;28;20191;-71
2021/05/01 04:48:20;;;;;;;0.32;0.32;;;;;;;;;;4991939;28;20168;-71
2021/05/01 04:50:50;;;;;;;0.50;0.32;;;;;;;;;;4991999;28;20183;-71
2021/05/01 04:53:16;;;;;;;0.68;0.68;;;;;;;;;;4974425;28;20175;-72
2021/05/01 04:55:43;;;;;;;0.55;0.32;;;;;;;;;;4991876;28;20215;-71
2021/05/01 04:58:09;;;;;;;0.50;0.50;;;;;;;;;;4974418;28;20172;-71
2021/05/01 05:00:35;;;;;;;0.10;0.10;;;;;;;;;;4991807;28;20169;-71
2021/05/01 05:03:01;;;;;;;0.35;0.35;;;;;;;;;;4974251;28;20202;-72
2021/05/01 05:05:27;;;;;;;0.63;0.40;;;;;;;;;;4991709;28;20202;-72
2021/05/01 05:07:54;;;;;;;0.70;0.70;;;;;;;;;;4974159;28;20219;-72
2021/05/01 05:10:20;;;;;;;1.05;1.00;;;;;;;;;;4991600;28;20252;-72
2021/05/01 05:12:47;;;;;;;0.63;0.52;;;;;;;;;;4974168;28;20171;-71
2021/05/01 05:15:14;;;;;;;0.20;0.20;;;;;;;;;;4974013;28;20198;-72
2021/05/01 05:17:40;;;;;;;0.47;0.47;;;;;;;;;;4974010;28;20179;-71
2021/05/01 05:20:07;;;;;;;1.95;0.85;;;;;;;;;;4991489;28;20172;-71
2021/05/01 05:22:33;;;;;;;0.32;0.32;;;;;;;;;;5003949;28;20234;-71
2021/05/01 05:25:00;;;;;;;0.57;0.57;;;;;;;;;;5010798;28;20206;-71
2021/05/01 05:27:26;;;;;;;0.20;0.20;;;;;;;;;;5010867;28;20174;-71
2021/05/01 05:29:53;;;;;;;0.93;0.93;;;;;;;;;;5010675;28;20174;-71
2021/05/01 05:32:20;;;;;;;0.28;0.28;;;;;;;;;;4993392;28;20641;-71
2021/05/01 05:34:47;;;;;;;0.22;0.22;;;;;;;;;;5010623;28;20198;-71
2021/05/01 05:37:13;;;;;;;0.25;0.25;;;;;;;;;;5010637;28;20216;-71
2021/05/01 05:39:44;;;;;;;0.20;0.20;;;;;;;;;;5010582;28;20166;-71
2021/05/01 05:42:11;;;;;;;0.13;0.13;;;;;;;;;;5010447;28;20276;-71
2021/05/01 05:44:44;;;;;;;0.82;0.32;;;;;;;;;;4992690;28;20225;-71
2021/05/01 05:47:11;;;;;;;0.88;0.80;;;;;;;;;;5010484;28;20163;-70
2021/05/01 05:49:37;;;;;;;3.03;0.70;;;;;;;;;;5009783;28;20163;-70
2021/05/01 05:52:03;;;;;;;1.13;0.43;;;;;;;;;;4992766;28;20196;-71
2021/05/01 05:54:29;;;;;;;0.57;0.57;;;;;;;;;;5010352;28;20673;-70
2021/05/01 05:56:55;;;;;;;0.10;0.10;;;;;;;;;;4992753;28;20205;-70
2021/05/01 05:59:21;;;;;;;0.10;0.10;;;;;;;;;;5009403;28;20187;-71
2021/05/01 06:01:49;;;;;;;0.10;0.10;;;;;;;;;;4992334;28;20202;-70
2021/05/01 06:04:21;;;;;;;0.68;0.68;;;;;;;;;;4992454;28;20198;-71
2021/05/01 06:06:56;;;;;;;2.40;0.45;;;;;;;;;;4992378;28;20162;-71
2021/05/01 06:09:22;;;;;;;0.43;0.40;;;;;;;;;;5009947;28;20190;-71
2021/05/01 06:11:50;;;;;;;0.75;0.75;;;;;;;;;;5009855;28;20163;-71
2021/05/01 06:14:18;;;;;;;0.17;0.17;;;;;;;;;;5009922;28;20697;-71
2021/05/01 06:16:45;;;;;;;0.30;0.30;;;;;;;;;;5009638;28;20174;-71
2021/05/01 06:19:11;;;;;;;0.10;0.10;;;;;;;;;;5008915;28;20158;-71
2021/05/01 06:21:38;;;;;;;0.20;0.20;;;;;;;;;;4986124;28;20241;-71
2021/05/01 06:24:05;;;;;;;0.30;0.30;;;;;;;;;;4989766;28;20625;-70
2021/05/01 06:26:31;;;;;;;0.45;0.45;;;;;;;;;;4997068;28;20189;-70
2021/05/01 06:28:58;;;;;;;0.45;0.45;;;;;;;;;;5009403;28;20182;-70
2021/05/01 06:31:25;;;;;;;0.22;0.22;;;;;;;;;;5009387;28;20178;-71
2021/05/01 06:33:52;;;;;;;0.10;0.10;;;;;;;;;;5009447;28;20154;-71
2021/05/01 06:36:20;;;;;;;2.30;0.50;;;;;;;;;;5009176;28;20233;-71
2021/05/01 06:38:47;;;;;;;9.75;0.45;;;;;;;;;;5008961;28;20173;-71
2021/05/01 06:41:15;;;;;;;0.40;0.40;;;;;;;;;;4991549;28;20202;-70
2021/05/01 06:43:50;;;;;;;0.40;0.40;;;;;;;;;;5008921;28;20178;-71
2021/05/01 06:46:20;;;;;;;0.32;0.32;;;;;;;;;;5008094;28;20198;-69
2021/05/01 06:48:54;;;;;;;0.32;0.30;;;;;;;;;;4990949;28;20277;-70
2021/05/01 06:51:20;;;;;;;0.15;0.15;;;;;;;;;;4990979;28;20221;-70
2021/05/01 06:53:47;;;;;;;0.57;0.35;;;;;;;;;;4991386;28;20192;-71
2021/05/01 06:56:14;;;;;;;0.17;0.17;;;;;;;;;;5008831;28;20194;-70
2021/05/01 06:58:41;;;;;;;0.20;0.20;;;;;;;;;;4991217;28;20181;-69
2021/05/01 07:01:12;;;;;;;0.10;0.10;;;;;;;;;;4990042;28;20176;-69
2021/05/01 07:03:44;;;;;;;0.35;0.35;;;;;;;;;;4990645;28;20198;-69
2021/05/01 07:06:15;;;;;;;0.10;0.10;;;;;;;;;;5005402;28;20190;-69
2021/05/01 07:08:41;;;;;;;0.68;0.52;;;;;;;;;;5007334;28;20166;-69
2021/05/01 07:11:08;;;;;;;0.20;0.20;;;;;;;;;;5007264;28;20178;-70
2021/05/01 07:13:35;;;;;;;1.10;0.55;;;;;;;;;;5007393;28;20166;-70
2021/05/01 07:16:04;;;;;;;0.20;0.20;;;;;;;;;;4989327;28;20209;-69
2021/05/01 07:18:31;;;;;;;0.93;0.30;;;;;;;;;;5007148;28;20170;-69
2021/05/01 07:20:58;;;;;;;0.20;0.20;;;;;;;;;;5007952;28;20181;-71
2021/05/01 07:23:26;;;;;;;0.10;0.10;;;;;;;;;;5028352;28;20169;-69
2021/05/01 07:25:52;;;;;;;0.65;0.63;;;;;;;;;;5028171;28;20662;-69
2021/05/01 07:28:21;;;;;;;0.28;0.28;;;;;;;;;;5026822;28;20174;-69
2021/05/01 07:30:49;;;;;;;1.23;0.50;;;;;;;;;;5027126;28;20188;-68
2021/05/01 07:33:31;;;;;;;11.57;0.93;;;;;;;;;;5026068;28;20225;-70
2021/05/01 07:36:10;;;;;;;0.80;0.70;;;;;;;;;;5004692;28;20173;-70
2021/05/01 07:38:37;;;;;;;0.20;0.20;;;;;;;;;;5024653;28;20185;-71
2021/05/01 07:41:04;;;;;;;0.47;0.47;;;;;;;;;;5019954;28;20169;-67
2021/05/01 07:43:31;;;;;;;1.65;0.85;;;;;;;;;;5025761;28;20232;-70
2021/05/01 07:46:05;;;;;;;1.35;0.50;;;;;;;;;;5025886;28;20648;-72
2021/05/01 07:48:32;;;;;;;3.25;0.70;;;;;;;;;;5023383;28;20188;-68
2021/05/01 07:50:58;;;;;;;0.55;0.55;;;;;;;;;;5025925;28;20185;-69
2021/05/01 07:53:25;;;;;;;0.30;0.30;;;;;;;;;;5023465;28;20680;-67
2021/05/01 07:55:51;;;;;;;0.10;0.10;;;;;;;;;;5026043;28;20175;-70
2021/05/01 07:58:17;;;;;;;1.05;0.50;;;;;;;;;;5026045;28;20229;-69
2021/05/01 08:00:45;;;;;;;1.88;0.30;;;;;;;;;;5023357;28;20155;-66
2021/05/01 08:03:11;;;;;;;1.02;0.60;;;;;;;;;;5026423;28;20224;-67
2021/05/01 08:05:39;;;;;;;0.55;0.40;;;;;;;;;;5027087;28;20173;-68
2021/05/01 08:08:05;;;;;;;0.22;0.20;;;;;;;;;;5023948;28;20166;-69
2021/05/01 08:10:31;;;;;;;0.10;0.10;;;;;;;;;;5009038;28;20684;-70
2021/05/01 08:12:57;;;;;;;0.52;0.35;;;;;;;;;;5011319;28;20220;-70
2021/05/01 08:15:25;;;;;;;1.30;0.28;;;;;;;;;;5029715;28;20250;-71
2021/05/01 08:17:52;;;;;;;1.65;0.35;;;;;;;;;;5029849;28;20173;-71
2021/05/01 08:20:18;;;;;;;0.10;0.10;;;;;;;;;;5029937;28;20166;-73
2021/05/01 08:22:44;;;;;;;0.20;0.20;;;;;;;;;;5029024;28;20221;-73
2021/05/01 08:25:11;;;;;;;0.20;0.20;;;;;;;;;;5030524;28;20601;-70
2021/05/01 08:27:38;;;;;;;0.10;0.10;;;;;;;;;;5031245;28;20237;-72
2021/05/01 08:30:05;;;;;;;0.60;0.43;;;;;;;;;;5031389;28;20154;-75
2021/05/01 08:32:31;;;;;;;0.10;0.10;;;;;;;;;;5031181;28;20369;-73
2021/05/01 08:34:57;;;;;;;1.02;0.40;;;;;;;;;;5030340;28;20197;-72
2021/05/01 08:37:24;;;;;;;0.30;0.30;;;;;;;;;;5030397;28;20192;-73
2021/05/01 08:39:50;;;;;;;0.20;0.20;;;;;;;;;;5030708;28;20245;-73
2021/05/01 08:42:17;;;;;;;0.35;0.32;;;;;;;;;;5030855;28;20228;-73
2021/05/01 08:44:43;;;;;;;0.30;0.30;;;;;;;;;;5030894;28;20211;-73
2021/05/01 08:47:09;;;;;;;0.10;0.10;;;;;;;;;;5031047;28;20158;-73
2021/05/01 08:49:35;;;;;;;0.15;0.15;;;;;;;;;;4992789;28;20234;-73
2021/05/01 08:52:01;;;;;;;0.17;0.15;;;;;;;;;;5010462;28;20217;-72
2021/05/01 08:54:28;;;;;;;0.30;0.25;;;;;;;;;;5010584;28;20194;-75
2021/05/01 08:56:54;;;;;;;0.50;0.50;;;;;;;;;;4997571;28;20192;-73
2021/05/01 08:59:20;;;;;;;0.32;0.32;;;;;;;;;;5030707;28;20250;-74
2021/05/01 09:01:51;;;;;;;0.77;0.50;;;;;;;;;;5012982;28;20300;-73
2021/05/01 09:04:17;;;;;;;0.10;0.10;;;;;;;;;;5013010;28;20166;-73
2021/05/01 09:06:44;;;;;;;0.10;0.10;;;;;;;;;;5030408;28;20174;-72
2021/05/01 09:09:11;;;;;;;0.10;0.10;;;;;;;;;;5030538;28;20161;-72
2021/05/01 09:11:38;;;;;;;2.13;0.40;;;;;;;;;;5030422;28;20227;-71
2021/05/01 09:14:17;;;;;;;0.15;0.15;;;;;;;;;;5030563;28;20166;-71
2021/05/01 09:16:44;;;;;;;1.65;0.28;;;;;;;;;;5030515;28;20324;-72
2021/05/01 09:19:10;;;;;;;0.10;0.10;;;;;;;;;;5030597;28;20166;-73
2021/05/01 09:21:36;;;;;;;0.38;0.38;;;;;;;;;;5030000;28;20243;-73
2021/05/01 09:24:03;;;;;;;0.17;0.10;;;;;;;;;;5029229;28;20158;-73
2021/05/01 09:26:42;;;;;;;0.38;0.30;;;;;;;;;;5012320;28;20173;-73
2021/05/01 09:29:10;;;;;;;0.25;0.10;;;;;;;;;;5029865;28;20233;-73
2021/05/01 09:31:40;;;;;;;0.15;0.15;;;;;;;;;;5030258;28;20197;-72
2021/05/01 09:34:06;;;;;;;0.10;0.10;;;;;;;;;;5030093;28;20192;-72
2021/05/01 09:36:33;;;;;;;0.52;0.52;;;;;;;;;;5026677;28;20186;-73
2021/05/01 09:39:02;;;;;;;0.30;0.30;;;;;;;;;;5010424;28;20653;-70
2021/05/01 09:41:33;;;;;;;0.55;0.13;;;;;;;;;;5010276;28;20234;-73
2021/05/01 09:44:05;;;;;;;0.20;0.20;;;;;;;;;;4998616;28;20506;-71
2021/05/01 09:46:32;;;;;;;7.13;1.40;;;;;;;;;;5029246;28;20176;-71
2021/05/01 09:49:05;;;;;;;0.20;0.10;;;;;;;;;;5029604;28;20601;-71
2021/05/01 09:51:32;;;;;;;0.60;0.60;;;;;;;;;;5012150;28;20201;-71
2021/05/01 09:54:00;;;;;;;0.47;0.47;;;;;;;;;;5012077;28;20209;-71
2021/05/01 09:56:27;;;;;;;0.13;0.13;;;;;;;;;;5029713;28;20625;-72
2021/05/01 09:58:54;;;;;;;0.20;0.20;;;;;;;;;;5029851;28;20161;-71
2021/05/01 10:01:20;;;;;;;1.55;0.55;;;;;;;;;;5029121;28;20209;-72
2021/05/01 10:03:46;;;;;;;0.20;0.20;;;;;;;;;;5011919;28;20193;-73
2021/05/01 10:06:15;;;;;;;0.20;0.20;;;;;;;;;;5029558;28;20162;-72
2021/05/01 10:08:42;;;;;;;0.35;0.35;;;;;;;;;;5029682;28;20181;-72
2021/05/01 10:11:12;;;;;;;0.77;0.50;;;;;;;;;;5029259;28;20189;-72
2021/05/01 10:13:58;;;;;;;0.52;0.52;;;;;;;;;;5011806;28;20243;-73
2021/05/01 10:16:25;;;;;;;0.30;0.30;;;;;;;;;;5011245;28;20177;-73
2021/05/01 10:19:04;;;;;;;0.20;0.20;;;;;;;;;;5029341;28;20181;-73
2021/05/01 10:21:30;;;;;;;0.38;0.32;;;;;;;;;;5023764;28;20229;-72
2021/05/01 10:23:57;;;;;;;4.97;0.25;;;;;;;;;;5009507;28;20170;-73
2021/05/01 10:26:24;;;;;;;0.82;0.80;;;;;;;;;;4991773;28;20162;-72
2021/05/01 10:28:51;;;;;;;0.38;0.38;;;;;;;;;;4991566;28;20169;-71
2021/05/01 10:31:20;;;;;;;0.50;0.50;;;;;;;;;;5009481;28;20304;-71
2021/05/01 10:33:46;;;;;;;0.30;0.30;;;;;;;;;;5009265;28;20158;-73
2021/05/01 10:36:27;;;;;;;0.10;0.10;;;;;;;;;;5009123;28;20173;-72
2021/05/01 10:39:07;;;;;;;0.50;0.50;;;;;;;;;;4992193;28;20177;-74
2021/05/01 10:41:35;;;;;;;0.45;0.40;;;;;;;;;;4991852;28;20309;-73
2021/05/01 10:44:02;;;;;;;0.40;0.40;;;;;;;;;;5003293;28;20159;-72
2021/05/01 10:46:28;;;;;;;3.75;0.90;;;;;;;;;;4989217;28;20485;-74
2021/05/01 10:48:59;;;;;;;1.65;0.30;;;;;;;;;;4989856;28;20178;-74
2021/05/01 10:51:26;;;;;;;0.20;0.20;;;;;;;;;;4972166;28;20212;-72
2021/05/01 10:54:06;;;;;;;1.05;0.50;;;;;;;;;;4989312;28;20163;-72
2021/05/01 10:56:32;;;;;;;2.17;0.45;;;;;;;;;;4989580;28;20212;-71
2021/05/01 10:59:06;;;;;;;0.17;0.17;;;;;;;;;;4989327;28;20250;-72
2021/05/01 11:01:33;;;;;;;0.32;0.32;;;;;;;;;;4989492;28;20697;-72
2021/05/01 11:04:04;;;;;;;0.20;0.20;;;;;;;;;;4972220;28;20221;-72
2021/05/01 11:06:37;;;;;;;4.07;0.70;;;;;;;;;;4989446;28;20250;-72
2021/05/01 11:09:05;;;;;;;0.47;0.47;;;;;;;;;;4972330;28;20197;-72
2021/05/01 11:11:33;;;;;;;0.30;0.30;;;;;;;;;;4989334;28;20190;-67
2021/05/01 11:14:13;;;;;;;0.15;0.15;;;;;;;;;;4989342;28;20621;-67
2021/05/01 11:16:44;;;;;;;1.17;0.90;;;;;;;;;;4989499;28;20501;-67
2021/05/01 11:19:12;;;;;;;0.40;0.40;;;;;;;;;;4989378;28;20167;-67
2021/05/01 11:21:41;;;;;;;0.50;0.40;;;;;;;;;;4971231;28;20281;-68
2021/05/01 11:24:09;;;;;;;0.82;0.60;;;;;;;;;;4971845;28;20189;-67
2021/05/01 11:26:35;;;;;;;0.17;0.17;;;;;;;;;;4989101;28;20179;-67
2021/05/01 11:29:02;;;;;;;0.20;0.20;;;;;;;;;;4989051;28;20228;-68
2021/05/01 11:31:29;;;;;;;0.17;0.17;;;;;;;;;;4971765;28;20640;-67
2021/05/01 11:33:58;;;;;;;0.20;0.20;;;;;;;;;;4988300;28;20186;-67
2021/05/01 11:36:27;;;;;;;0.65;0.20;;;;;;;;;;4997392;28;20178;-68
2021/05/01 11:38:53;;;;;;;0.38;0.38;;;;;;;;;;5008509;28;20166;-67
2021/05/01 11:41:20;;;;;;;0.25;0.20;;;;;;;;;;5008383;28;20268;-67
2021/05/01 11:43:46;;;;;;;0.70;0.70;;;;;;;;;;5008246;28;20194;-68
2021/05/01 11:46:22;;;;;;;0.68;0.22;;;;;;;;;;4990409;28;20173;-68
2021/05/01 11:48:55;;;;;;;0.20;0.20;;;;;;;;;;4991094;28;20169;-67
2021/05/01 11:51:34;;;;;;;0.20;0.20;;;;;;;;;;5008327;28;20626;-67
2021/05/01 11:54:10;;;;;;;0.20;0.20;;;;;;;;;;5008403;28;20170;-66
2021/05/01 11:56:51;;;;;;;0.15;0.15;;;;;;;;;;5008467;28;20162;-68
2021/05/01 11:59:17;;;;;;;2.65;0.93;;;;;;;;;;5008347;28;20506;-69
2021/05/01 12:01:49;;;;;;;0.30;0.30;;;;;;;;;;4990413;28;20289;-69
2021/05/01 12:04:20;;;;;;;0.20;0.20;;;;;;;;;;5008041;28;20177;-68
2021/05/01 12:06:53;;;;;;;0.28;0.28;;;;;;;;;;4990522;28;20257;-69
2021/05/01 12:09:29;;;;;;;0.20;0.20;;;;;;;;;;4990671;28;20219;-69
2021/05/01 12:11:57;;;;;;;0.73;0.32;;;;;;;;;;5008192;28;20198;-69
2021/05/01 12:14:26;;;;;;;0.10;0.10;;;;;;;;;;5008165;28;20155;-69
2021/05/01 12:16:53;;;;;;;0.60;0.60;;;;;;;;;;5007999;28;20176;-69
2021/05/01 12:19:21;;;;;;;0.50;0.40;;;;;;;;;;5007895;28;20170;-68
2021/05/01 12:21:47;;;;;;;0.10;0.10;;;;;;;;;;5014399;28;20252;-69
2021/05/01 12:24:32;;;;;;;0.43;0.43;;;;;;;;;;5027478;28;20165;-69
2021/05/01 12:26:59;;;;;;;1.00;0.98;;;;;;;;;;5027486;28;20154;-69
2021/05/01 12:29:28;;;;;;;0.90;0.70;;;;;;;;;;5027244;28;20160;-68
2021/05/01 12:31:54;;;;;;;0.60;0.60;;;;;;;;;;5027178;28;20403;-68
2021/05/01 12:34:22;;;;;;;0.30;0.30;;;;;;;;;;5027148;28;20179;-69
2021/05/01 12:36:52;;;;;;;0.10;0.10;;;;;;;;;;5002602;28;20217;-69
2021/05/01 12:39:19;;;;;;;1.73;0.35;;;;;;;;;;5007077;28;20192;-68
2021/05/01 12:41:49;;;;;;;15.00;0.35;;;;;;;;;;4989372;28;20640;-69
2021/05/01 12:44:32;;;;;;;0.30;0.30;;;;;;;;;;5014645;28;20539;-69
2021/05/01 12:46:58;;;;;;;0.03;0.03;;;;;;;;;;5025421;28;20219;-69
2021/05/01 12:49:25;;;;;;;12.65;0.45;;;;;;;;;;5025519;28;20177;-70
2021/05/01 12:51:54;;;;;;;0.45;0.45;;;;;;;;;;5025642;28;20220;-69
2021/05/01 12:54:21;;;;;;;0.05;0.05;;;;;;;;;;5025516;28;20166;-67
2021/05/01 12:56:57;;;;;;;0.25;0.25;;;;;;;;;;5025340;28;20216;-68
2021/05/01 12:59:23;;;;;;;1.95;0.55;;;;;;;;;;5011374;28;20634;-68
2021/05/01 13:02:09;;;;;;;0.20;0.20;;;;;;;;;;5029430;28;20224;-68
2021/05/01 13:04:37;;;;;;;0.30;0.30;;;;;;;;;;5027159;28;20177;-69
2021/05/01 13:07:05;;;;;;;0.20;0.20;;;;;;;;;;5028948;28;20168;-69
2021/05/01 13:09:34;;;;;;;0.00;0.00;;;;;;;;;;5026451;28;20173;-69
2021/05/01 13:12:03;;;;;;;0.30;0.30;;;;;;;;;;5010965;28;20197;-69
2021/05/01 13:14:29;;;;;;;0.10;0.10;;;;;;;;;;5008282;28;20208;-69
2021/05/01 13:16:59;;;;;;;0.25;0.25;;;;;;;;;;5029837;28;20177;-69
2021/05/01 13:19:25;;;;;;;0.05;0.05;;;;;;;;;;5030456;28;20633;-69
2021/05/01 13:21:59;;;;;;;0.10;0.10;;;;;;;;;;5012340;28;20225;-69
2021/05/01 13:24:27;;;;;;;0.32;0.32;;;;;;;;;;5030395;28;20150;-69
2021/05/01 13:26:55;;;;;;;3.30;0.40;;;;;;;;;;5030421;28;20616;-69
2021/05/01 13:29:25;;;;;;;0.10;0.10;;;;;;;;;;5029153;28;20161;-69
2021/05/01 13:31:51;;;;;;;0.38;0.38;;;;;;;;;;5030286;28;20197;-69
2021/05/01 13:34:18;;;;;;;0.45;0.45;;;;;;;;;;5012333;28;20265;-70
2021/05/01 13:36:44;;;;;;;0.10;0.10;;;;;;;;;;5010073;28;20200;-69
2021/05/01 13:39:42;;;;;;;0.20;0.20;;;;;;;;;;5028005;28;20177;-69
2021/05/01 13:42:12;;;;;;;0.90;0.52;;;;;;;;;;4945582;29;20348;-69
2021/05/01 13:44:41;;;;;;;0.38;0.38;;;;;;;;;;4940622;29;20199;-69
2021/05/01 13:47:17;;;;;;;0.10;0.10;;;;;;;;;;4947885;29;20191;-69
2021/05/01 13:49:44;;;;;;;0.20;0.20;;;;;;;;;;4947821;29;20183;-69
2021/05/01 13:52:11;;;;;;;0.10;0.10;;;;;;;;;;4947622;29;20240;-69
2021/05/01 13:54:37;;;;;;;0.50;0.50;;;;;;;;;;4948061;29;20199;-69
2021/05/01 13:57:10;;;;;;;3.63;0.77;;;;;;;;;;4947927;29;20180;-70
2021/05/01 13:59:37;;;;;;;0.20;0.20;;;;;;;;;;4947603;29;20637;-69
2021/05/01 14:02:04;;;;;;;2.20;1.15;;;;;;;;;;4923716;29;20214;-69
2021/05/01 14:04:37;;;;;;;0.57;0.57;;;;;;;;;;4947364;29;20231;-68
2021/05/01 14:07:04;;;;;;;0.47;0.47;;;;;;;;;;4947490;29;20246;-73
2021/05/01 14:09:31;;;;;;;1.00;0.73;;;;;;;;;;4947140;29;20196;-69
2021/05/01 14:11:58;;;;;;;0.60;0.55;;;;;;;;;;4923672;29;20204;-70
2021/05/01 14:14:26;;;;;;;0.45;0.43;;;;;;;;;;4930476;29;20244;-68
2021/05/01 14:17:03;;;;;;;0.15;0.15;;;;;;;;;;4946023;29;20229;-68
2021/05/01 14:19:29;;;;;;;0.10;0.10;;;;;;;;;;5003197;28;20245;-69
2021/05/01 14:21:56;;;;;;;0.10;0.10;;;;;;;;;;5009535;28;20230;-69
2021/05/01 14:24:23;;;;;;;2.92;0.88;;;;;;;;;;5009706;28;20194;-68
2021/05/01 14:26:57;;;;;;;0.57;0.55;;;;;;;;;;5010061;28;20178;-69
2021/05/01 14:29:25;;;;;;;2.78;0.55;;;;;;;;;;5027277;28;20185;-69
2021/05/01 14:32:10;;;;;;;0.40;0.32;;;;;;;;;;5027646;28;20180;-69
2021/05/01 14:34:36;;;;;;;0.10;0.10;;;;;;;;;;5026392;28;20211;-69
2021/05/01 14:37:02;;;;;;;0.05;0.05;;;;;;;;;;5027234;28;20212;-69
2021/05/01 14:39:29;;;;;;;0.15;0.15;;;;;;;;;;5027306;28;20581;-71
2021/05/01 14:41:56;;;;;;;0.10;0.10;;;;;;;;;;5009296;28;20213;-73
2021/05/01 14:44:26;;;;;;;0.17;0.17;;;;;;;;;;5026657;28;20553;-71
2021/05/01 14:46:52;;;;;;;0.52;0.52;;;;;;;;;;5028064;28;20189;-70
2021/05/01 14:49:21;;;;;;;1.65;0.35;;;;;;;;;;5028977;28;20192;-68